sensor_id;sensor_type;location;lat;lon;timestamp;P1;durP1;ratioP1;P2;durP2;ratioP2
12437;SDS011;6283;51.330;12.374;2022-10-31T00:00:43;8.80;;;5.03;;
12437;SDS011;6283;51.330;12.374;2022-10-31T00:03:09;7.70;;;4.70;;
12437;SDS011;6283;51.330;12.374;2022-10-31T00:05:34;7.10;;;4.73;;
12437;SDS011;6283;51.330;12.374;2022-10-31T00:08:00;7.40;;;4.60;;
12437;SDS011;6283;51.330;12.374;2022-10-31T00:10:25;13.37;;;5.30;;
12437;SDS011;6283;51.330;12.374;2022-10-31T00:12:51;9.00;;;4.82;;
12437;SDS011;6283;51.330;12.374;2022-10-31T00:15:17;12.40;;;5.33;;
12437;SDS011;6283;51.330;12.374;2022-10-31T00:17:42;7.00;;;4.63;;
12437;SDS011;6283;51.330;12.374;2022-10-31T00:20:08;8.33;;;5.03;;
12437;SDS011;6283;51.330;12.374;2022-10-31T00:22:34;9.60;;;4.97;;
12437;SDS011;6283;51.330;12.374;2022-10-31T00:24:59;8.00;;;4.80;;
12437;SDS011;6283;51.330;12.374;2022-10-31T00:27:25;25.07;;;6.37;;
12437;SDS011;6283;51.330;12.374;2022-10-31T00:29:50;29.97;;;6.67;;
12437;SDS011;6283;51.330;12.374;2022-10-31T00:32:16;14.13;;;5.27;;
12437;SDS011;6283;51.330;12.374;2022-10-31T00:34:41;9.63;;;5.83;;
12437;SDS011;6283;51.330;12.374;2022-10-31T00:37:07;7.87;;;5.00;;
12437;SDS011;6283;51.330;12.374;2022-10-31T00:39:32;7.07;;;4.93;;
12437;SDS011;6283;51.330;12.374;2022-10-31T00:41:58;7.93;;;5.13;;
12437;SDS011;6283;51.330;12.374;2022-10-31T00:44:23;10.23;;;4.60;;
12437;SDS011;6283;51.330;12.374;2022-10-31T00:46:49;6.60;;;4.93;;
12437;SDS011;6283;51.330;12.374;2022-10-31T00:49:14;8.10;;;5.50;;
12437;SDS011;6283;51.330;12.374;2022-10-31T00:51:40;4.90;;;4.20;;
12437;SDS011;6283;51.330;12.374;2022-10-31T00:54:06;10.90;;;4.97;;
12437;SDS011;6283;51.330;12.374;2022-10-31T00:56:31;7.03;;;4.80;;
12437;SDS011;6283;51.330;12.374;2022-10-31T00:58:57;7.57;;;4.80;;
12437;SDS011;6283;51.330;12.374;2022-10-31T01:01:23;11.63;;;6.53;;
12437;SDS011;6283;51.330;12.374;2022-10-31T01:03:48;9.93;;;4.47;;
12437;SDS011;6283;51.330;12.374;2022-10-31T01:06:14;9.83;;;4.87;;
12437;SDS011;6283;51.330;12.374;2022-10-31T01:08:40;7.47;;;4.40;;
12437;SDS011;6283;51.330;12.374;2022-10-31T01:11:10;8.97;;;4.60;;
12437;SDS011;6283;51.330;12.374;2022-10-31T01:13:44;8.97;;;4.13;;
12437;SDS011;6283;51.330;12.374;2022-10-31T01:16:12;8.53;;;4.63;;
12437;SDS011;6283;51.330;12.374;2022-10-31T01:18:42;6.00;;;4.93;;
12437;SDS011;6283;51.330;12.374;2022-10-31T01:21:12;7.83;;;4.37;;
12437;SDS011;6283;51.330;12.374;2022-10-31T01:23:40;8.20;;;4.90;;
12437;SDS011;6283;51.330;12.374;2022-10-31T01:28:36;7.97;;;4.73;;
12437;SDS011;6283;51.330;12.374;2022-10-31T01:31:04;8.10;;;4.70;;
12437;SDS011;6283;51.330;12.374;2022-10-31T01:33:34;8.17;;;4.93;;
12437;SDS011;6283;51.330;12.374;2022-10-31T01:36:00;10.80;;;5.47;;
12437;SDS011;6283;51.330;12.374;2022-10-31T01:38:26;10.30;;;5.10;;
12437;SDS011;6283;51.330;12.374;2022-10-31T01:40:52;8.47;;;4.30;;
12437;SDS011;6283;51.330;12.374;2022-10-31T01:43:18;10.10;;;4.97;;
12437;SDS011;6283;51.330;12.374;2022-10-31T01:45:46;7.10;;;4.70;;
12437;SDS011;6283;51.330;12.374;2022-10-31T01:48:18;9.20;;;4.93;;
12437;SDS011;6283;51.330;12.374;2022-10-31T01:50:46;8.13;;;5.23;;
12437;SDS011;6283;51.330;12.374;2022-10-31T01:53:16;6.60;;;4.80;;
12437;SDS011;6283;51.330;12.374;2022-10-31T01:55:43;7.03;;;4.93;;
12437;SDS011;6283;51.330;12.374;2022-10-31T01:58:12;6.50;;;4.70;;
12437;SDS011;6283;51.330;12.374;2022-10-31T02:00:41;13.10;;;5.03;;
12437;SDS011;6283;51.330;12.374;2022-10-31T02:03:08;8.13;;;4.23;;
12437;SDS011;6283;51.330;12.374;2022-10-31T02:05:34;6.57;;;4.73;;
12437;SDS011;6283;51.330;12.374;2022-10-31T02:08:08;8.33;;;5.10;;
12437;SDS011;6283;51.330;12.374;2022-10-31T02:10:45;9.73;;;5.10;;
12437;SDS011;6283;51.330;12.374;2022-10-31T02:13:11;7.80;;;5.00;;
12437;SDS011;6283;51.330;12.374;2022-10-31T02:15:37;7.10;;;4.70;;
12437;SDS011;6283;51.330;12.374;2022-10-31T02:18:05;8.83;;;4.93;;
12437;SDS011;6283;51.330;12.374;2022-10-31T02:20:33;6.33;;;4.40;;
12437;SDS011;6283;51.330;12.374;2022-10-31T02:34:26;9.53;;;5.40;;
12437;SDS011;6283;51.330;12.374;2022-10-31T02:37:17;9.83;;;4.87;;
12437;SDS011;6283;51.330;12.374;2022-10-31T02:40:21;6.53;;;4.97;;
12437;SDS011;6283;51.330;12.374;2022-10-31T02:45:42;14.17;;;6.00;;
12437;SDS011;6283;51.330;12.374;2022-10-31T02:48:39;7.40;;;4.87;;
12437;SDS011;6283;51.330;12.374;2022-10-31T02:51:09;7.43;;;5.40;;
12437;SDS011;6283;51.330;12.374;2022-10-31T02:53:37;10.47;;;4.97;;
12437;SDS011;6283;51.330;12.374;2022-10-31T02:58:38;7.17;;;4.77;;
12437;SDS011;6283;51.330;12.374;2022-10-31T03:06:41;8.07;;;4.97;;
12437;SDS011;6283;51.330;12.374;2022-10-31T03:09:43;7.37;;;5.00;;
12437;SDS011;6283;51.330;12.374;2022-10-31T03:12:11;8.23;;;4.90;;
12437;SDS011;6283;51.330;12.374;2022-10-31T03:17:22;6.67;;;4.30;;
12437;SDS011;6283;51.330;12.374;2022-10-31T03:19:58;9.30;;;5.47;;
12437;SDS011;6283;51.330;12.374;2022-10-31T03:22:27;7.90;;;5.37;;
12437;SDS011;6283;51.330;12.374;2022-10-31T03:24:55;10.30;;;5.30;;
12437;SDS011;6283;51.330;12.374;2022-10-31T03:27:23;9.90;;;5.23;;
12437;SDS011;6283;51.330;12.374;2022-10-31T03:29:52;13.80;;;6.17;;
12437;SDS011;6283;51.330;12.374;2022-10-31T03:34:56;9.23;;;5.70;;
12437;SDS011;6283;51.330;12.374;2022-10-31T03:37:24;9.53;;;5.60;;
12437;SDS011;6283;51.330;12.374;2022-10-31T03:39:52;7.67;;;5.13;;
12437;SDS011;6283;51.330;12.374;2022-10-31T03:42:23;10.00;;;5.23;;
12437;SDS011;6283;51.330;12.374;2022-10-31T03:45:03;8.90;;;5.40;;
12437;SDS011;6283;51.330;12.374;2022-10-31T03:47:37;9.80;;;4.77;;
12437;SDS011;6283;51.330;12.374;2022-10-31T03:50:05;8.10;;;5.73;;
12437;SDS011;6283;51.330;12.374;2022-10-31T03:55:19;7.87;;;5.30;;
12437;SDS011;6283;51.330;12.374;2022-10-31T03:57:53;11.50;;;5.27;;
12437;SDS011;6283;51.330;12.374;2022-10-31T04:00:20;9.43;;;4.70;;
12437;SDS011;6283;51.330;12.374;2022-10-31T04:05:36;9.27;;;5.00;;
12437;SDS011;6283;51.330;12.374;2022-10-31T04:08:04;8.67;;;5.27;;
12437;SDS011;6283;51.330;12.374;2022-10-31T04:10:35;9.17;;;5.73;;
12437;SDS011;6283;51.330;12.374;2022-10-31T04:13:05;12.17;;;6.00;;
12437;SDS011;6283;51.330;12.374;2022-10-31T04:15:36;8.87;;;5.70;;
12437;SDS011;6283;51.330;12.374;2022-10-31T04:18:03;8.90;;;6.03;;
12437;SDS011;6283;51.330;12.374;2022-10-31T04:20:31;7.17;;;5.03;;
12437;SDS011;6283;51.330;12.374;2022-10-31T04:23:01;8.67;;;5.77;;
12437;SDS011;6283;51.330;12.374;2022-10-31T04:25:28;7.43;;;5.03;;
12437;SDS011;6283;51.330;12.374;2022-10-31T04:27:53;8.73;;;5.20;;
12437;SDS011;6283;51.330;12.374;2022-10-31T04:30:19;9.40;;;5.17;;
12437;SDS011;6283;51.330;12.374;2022-10-31T04:32:45;8.97;;;4.77;;
12437;SDS011;6283;51.330;12.374;2022-10-31T04:35:10;9.87;;;5.30;;
12437;SDS011;6283;51.330;12.374;2022-10-31T04:37:36;11.57;;;5.67;;
12437;SDS011;6283;51.330;12.374;2022-10-31T04:40:02;7.83;;;5.43;;
12437;SDS011;6283;51.330;12.374;2022-10-31T04:42:31;10.73;;;5.27;;
12437;SDS011;6283;51.330;12.374;2022-10-31T04:44:56;8.23;;;5.13;;
12437;SDS011;6283;51.330;12.374;2022-10-31T04:47:22;10.67;;;5.67;;
12437;SDS011;6283;51.330;12.374;2022-10-31T04:49:48;8.87;;;5.40;;
12437;SDS011;6283;51.330;12.374;2022-10-31T04:52:13;9.97;;;5.70;;
12437;SDS011;6283;51.330;12.374;2022-10-31T04:54:39;8.40;;;5.10;;
12437;SDS011;6283;51.330;12.374;2022-10-31T04:57:04;7.73;;;5.40;;
12437;SDS011;6283;51.330;12.374;2022-10-31T04:59:30;8.67;;;5.30;;
12437;SDS011;6283;51.330;12.374;2022-10-31T05:01:55;6.67;;;4.77;;
12437;SDS011;6283;51.330;12.374;2022-10-31T05:04:21;6.77;;;4.83;;
12437;SDS011;6283;51.330;12.374;2022-10-31T05:06:47;6.17;;;4.67;;
12437;SDS011;6283;51.330;12.374;2022-10-31T05:09:13;7.97;;;4.77;;
12437;SDS011;6283;51.330;12.374;2022-10-31T05:11:38;7.03;;;4.73;;
12437;SDS011;6283;51.330;12.374;2022-10-31T05:14:04;9.20;;;4.97;;
12437;SDS011;6283;51.330;12.374;2022-10-31T05:16:29;7.00;;;4.73;;
12437;SDS011;6283;51.330;12.374;2022-10-31T05:18:55;9.03;;;5.50;;
12437;SDS011;6283;51.330;12.374;2022-10-31T05:21:20;8.50;;;5.33;;
12437;SDS011;6283;51.330;12.374;2022-10-31T05:23:46;5.80;;;4.80;;
12437;SDS011;6283;51.330;12.374;2022-10-31T05:26:12;8.97;;;5.37;;
12437;SDS011;6283;51.330;12.374;2022-10-31T05:28:37;8.10;;;4.80;;
12437;SDS011;6283;51.330;12.374;2022-10-31T05:31:03;8.83;;;5.17;;
12437;SDS011;6283;51.330;12.374;2022-10-31T05:33:28;7.60;;;4.80;;
12437;SDS011;6283;51.330;12.374;2022-10-31T05:35:54;8.00;;;5.87;;
12437;SDS011;6283;51.330;12.374;2022-10-31T05:38:20;10.00;;;5.30;;
12437;SDS011;6283;51.330;12.374;2022-10-31T05:40:45;8.60;;;5.17;;
12437;SDS011;6283;51.330;12.374;2022-10-31T05:43:11;10.10;;;5.13;;
12437;SDS011;6283;51.330;12.374;2022-10-31T05:45:36;9.63;;;5.07;;
12437;SDS011;6283;51.330;12.374;2022-10-31T05:48:02;6.70;;;4.97;;
12437;SDS011;6283;51.330;12.374;2022-10-31T05:50:28;8.23;;;4.90;;
12437;SDS011;6283;51.330;12.374;2022-10-31T05:52:59;8.40;;;5.27;;
12437;SDS011;6283;51.330;12.374;2022-10-31T05:55:27;9.37;;;5.33;;
12437;SDS011;6283;51.330;12.374;2022-10-31T05:57:53;9.80;;;5.43;;
12437;SDS011;6283;51.330;12.374;2022-10-31T06:00:19;8.47;;;4.77;;
12437;SDS011;6283;51.330;12.374;2022-10-31T06:02:45;10.53;;;5.70;;
12437;SDS011;6283;51.330;12.374;2022-10-31T06:05:11;10.80;;;5.60;;
12437;SDS011;6283;51.330;12.374;2022-10-31T06:07:37;10.93;;;5.90;;
12437;SDS011;6283;51.330;12.374;2022-10-31T06:10:04;8.13;;;5.53;;
12437;SDS011;6283;51.330;12.374;2022-10-31T06:12:31;10.20;;;5.90;;
12437;SDS011;6283;51.330;12.374;2022-10-31T06:14:57;10.27;;;6.80;;
12437;SDS011;6283;51.330;12.374;2022-10-31T06:17:22;12.40;;;5.33;;
12437;SDS011;6283;51.330;12.374;2022-10-31T06:19:48;8.37;;;5.23;;
12437;SDS011;6283;51.330;12.374;2022-10-31T06:22:14;8.53;;;5.53;;
12437;SDS011;6283;51.330;12.374;2022-10-31T06:24:39;7.60;;;5.03;;
12437;SDS011;6283;51.330;12.374;2022-10-31T06:27:05;8.57;;;5.30;;
12437;SDS011;6283;51.330;12.374;2022-10-31T06:29:31;8.60;;;5.33;;
12437;SDS011;6283;51.330;12.374;2022-10-31T06:31:57;9.00;;;5.53;;
12437;SDS011;6283;51.330;12.374;2022-10-31T06:34:22;9.47;;;5.87;;
12437;SDS011;6283;51.330;12.374;2022-10-31T06:36:48;7.00;;;5.40;;
12437;SDS011;6283;51.330;12.374;2022-10-31T06:39:14;9.87;;;5.70;;
12437;SDS011;6283;51.330;12.374;2022-10-31T06:41:39;14.03;;;6.03;;
12437;SDS011;6283;51.330;12.374;2022-10-31T06:44:06;10.53;;;6.17;;
12437;SDS011;6283;51.330;12.374;2022-10-31T06:46:32;9.30;;;5.23;;
12437;SDS011;6283;51.330;12.374;2022-10-31T06:48:58;7.87;;;5.63;;
12437;SDS011;6283;51.330;12.374;2022-10-31T06:51:24;7.03;;;5.80;;
12437;SDS011;6283;51.330;12.374;2022-10-31T06:53:49;8.73;;;5.60;;
12437;SDS011;6283;51.330;12.374;2022-10-31T06:56:15;9.83;;;5.53;;
12437;SDS011;6283;51.330;12.374;2022-10-31T06:58:41;5.83;;;5.20;;
12437;SDS011;6283;51.330;12.374;2022-10-31T07:01:06;9.73;;;5.00;;
12437;SDS011;6283;51.330;12.374;2022-10-31T07:03:32;6.87;;;5.23;;
12437;SDS011;6283;51.330;12.374;2022-10-31T07:05:57;9.53;;;5.77;;
12437;SDS011;6283;51.330;12.374;2022-10-31T07:08:23;7.10;;;5.60;;
12437;SDS011;6283;51.330;12.374;2022-10-31T07:10:53;9.00;;;5.20;;
12437;SDS011;6283;51.330;12.374;2022-10-31T07:13:20;10.20;;;6.20;;
12437;SDS011;6283;51.330;12.374;2022-10-31T07:15:53;9.43;;;5.30;;
12437;SDS011;6283;51.330;12.374;2022-10-31T07:18:20;8.33;;;5.60;;
12437;SDS011;6283;51.330;12.374;2022-10-31T07:20:46;8.27;;;5.57;;
12437;SDS011;6283;51.330;12.374;2022-10-31T07:23:13;9.33;;;5.43;;
12437;SDS011;6283;51.330;12.374;2022-10-31T07:25:39;10.80;;;5.70;;
12437;SDS011;6283;51.330;12.374;2022-10-31T07:28:05;8.60;;;5.57;;
12437;SDS011;6283;51.330;12.374;2022-10-31T07:30:31;11.63;;;5.50;;
12437;SDS011;6283;51.330;12.374;2022-10-31T07:32:56;8.20;;;5.87;;
12437;SDS011;6283;51.330;12.374;2022-10-31T07:35:23;7.40;;;5.53;;
12437;SDS011;6283;51.330;12.374;2022-10-31T07:37:50;9.63;;;5.83;;
12437;SDS011;6283;51.330;12.374;2022-10-31T07:40:16;11.47;;;6.40;;
12437;SDS011;6283;51.330;12.374;2022-10-31T07:42:44;8.83;;;6.03;;
12437;SDS011;6283;51.330;12.374;2022-10-31T07:45:12;8.97;;;5.63;;
12437;SDS011;6283;51.330;12.374;2022-10-31T07:47:42;12.33;;;6.03;;
12437;SDS011;6283;51.330;12.374;2022-10-31T07:50:08;7.37;;;5.70;;
12437;SDS011;6283;51.330;12.374;2022-10-31T07:52:37;9.10;;;5.57;;
12437;SDS011;6283;51.330;12.374;2022-10-31T07:55:03;5.63;;;4.80;;
12437;SDS011;6283;51.330;12.374;2022-10-31T07:57:29;9.37;;;5.47;;
12437;SDS011;6283;51.330;12.374;2022-10-31T07:59:54;8.67;;;5.77;;
12437;SDS011;6283;51.330;12.374;2022-10-31T08:02:20;9.00;;;5.97;;
12437;SDS011;6283;51.330;12.374;2022-10-31T08:04:46;6.47;;;5.33;;
12437;SDS011;6283;51.330;12.374;2022-10-31T08:07:11;9.10;;;5.67;;
12437;SDS011;6283;51.330;12.374;2022-10-31T08:09:37;8.40;;;5.27;;
12437;SDS011;6283;51.330;12.374;2022-10-31T08:12:02;7.77;;;5.33;;
12437;SDS011;6283;51.330;12.374;2022-10-31T08:14:28;9.73;;;5.27;;
12437;SDS011;6283;51.330;12.374;2022-10-31T08:16:54;7.90;;;5.20;;
12437;SDS011;6283;51.330;12.374;2022-10-31T08:19:20;9.03;;;5.70;;
12437;SDS011;6283;51.330;12.374;2022-10-31T08:21:46;6.83;;;5.20;;
12437;SDS011;6283;51.330;12.374;2022-10-31T08:24:15;8.60;;;5.13;;
12437;SDS011;6283;51.330;12.374;2022-10-31T08:26:40;7.80;;;5.10;;
12437;SDS011;6283;51.330;12.374;2022-10-31T08:29:06;7.63;;;5.57;;
12437;SDS011;6283;51.330;12.374;2022-10-31T08:31:31;7.93;;;5.50;;
12437;SDS011;6283;51.330;12.374;2022-10-31T08:33:57;9.47;;;5.83;;
12437;SDS011;6283;51.330;12.374;2022-10-31T08:36:23;9.03;;;5.27;;
12437;SDS011;6283;51.330;12.374;2022-10-31T08:38:48;10.75;;;6.03;;
12437;SDS011;6283;51.330;12.374;2022-10-31T08:41:14;7.67;;;5.80;;
12437;SDS011;6283;51.330;12.374;2022-10-31T08:43:40;13.02;;;6.10;;
12437;SDS011;6283;51.330;12.374;2022-10-31T08:46:05;12.35;;;6.55;;
12437;SDS011;6283;51.330;12.374;2022-10-31T08:48:31;8.80;;;5.90;;
12437;SDS011;6283;51.330;12.374;2022-10-31T08:50:57;10.27;;;6.25;;
12437;SDS011;6283;51.330;12.374;2022-10-31T08:53:24;9.55;;;6.50;;
12437;SDS011;6283;51.330;12.374;2022-10-31T08:55:50;9.93;;;7.03;;
12437;SDS011;6283;51.330;12.374;2022-10-31T08:58:17;8.98;;;5.85;;
12437;SDS011;6283;51.330;12.374;2022-10-31T09:00:44;13.98;;;7.57;;
12437;SDS011;6283;51.330;12.374;2022-10-31T09:03:12;12.90;;;7.10;;
12437;SDS011;6283;51.330;12.374;2022-10-31T09:05:40;14.85;;;7.32;;
12437;SDS011;6283;51.330;12.374;2022-10-31T09:08:06;14.77;;;7.50;;
12437;SDS011;6283;51.330;12.374;2022-10-31T09:10:32;14.65;;;8.02;;
12437;SDS011;6283;51.330;12.374;2022-10-31T09:13:00;16.60;;;8.55;;
12437;SDS011;6283;51.330;12.374;2022-10-31T09:15:34;23.77;;;12.07;;
12437;SDS011;6283;51.330;12.374;2022-10-31T09:18:01;16.88;;;10.60;;
12437;SDS011;6283;51.330;12.374;2022-10-31T09:20:27;18.90;;;10.90;;
12437;SDS011;6283;51.330;12.374;2022-10-31T09:23:27;20.17;;;11.45;;
12437;SDS011;6283;51.330;12.374;2022-10-31T09:25:46;22.77;;;12.18;;
12437;SDS011;6283;51.330;12.374;2022-10-31T09:28:14;26.13;;;13.05;;
12437;SDS011;6283;51.330;12.374;2022-10-31T09:30:40;22.77;;;13.20;;
12437;SDS011;6283;51.330;12.374;2022-10-31T09:33:10;21.17;;;12.43;;
12437;SDS011;6283;51.330;12.374;2022-10-31T09:35:37;22.88;;;13.30;;
12437;SDS011;6283;51.330;12.374;2022-10-31T09:38:03;25.17;;;13.43;;
12437;SDS011;6283;51.330;12.374;2022-10-31T09:40:40;24.42;;;14.52;;
12437;SDS011;6283;51.330;12.374;2022-10-31T09:51:30;28.02;;;14.77;;
12437;SDS011;6283;51.330;12.374;2022-10-31T09:56:35;30.17;;;15.80;;
12437;SDS011;6283;51.330;12.374;2022-10-31T09:59:02;33.22;;;15.43;;
12437;SDS011;6283;51.330;12.374;2022-10-31T10:06:56;27.60;;;14.85;;
12437;SDS011;6283;51.330;12.374;2022-10-31T10:09:24;25.77;;;15.63;;
12437;SDS011;6283;51.330;12.374;2022-10-31T10:25:23;26.55;;;14.60;;
12437;SDS011;6283;51.330;12.374;2022-10-31T10:28:03;29.85;;;14.98;;
12437;SDS011;6283;51.330;12.374;2022-10-31T10:30:46;29.88;;;16.17;;
12437;SDS011;6283;51.330;12.374;2022-10-31T10:33:19;33.92;;;17.88;;
12437;SDS011;6283;51.330;12.374;2022-10-31T10:35:57;34.22;;;17.17;;
12437;SDS011;6283;51.330;12.374;2022-10-31T10:38:39;33.53;;;17.20;;
12437;SDS011;6283;51.330;12.374;2022-10-31T10:41:18;32.42;;;16.42;;
12437;SDS011;6283;51.330;12.374;2022-10-31T10:43:45;31.17;;;16.35;;
12437;SDS011;6283;51.330;12.374;2022-10-31T10:46:17;34.00;;;18.75;;
12437;SDS011;6283;51.330;12.374;2022-10-31T10:49:15;33.22;;;17.95;;
12437;SDS011;6283;51.330;12.374;2022-10-31T10:59:56;36.95;;;19.48;;
12437;SDS011;6283;51.330;12.374;2022-10-31T11:02:25;42.17;;;20.08;;
12437;SDS011;6283;51.330;12.374;2022-10-31T11:04:56;34.50;;;18.48;;
12437;SDS011;6283;51.330;12.374;2022-10-31T11:07:24;30.88;;;18.52;;
12437;SDS011;6283;51.330;12.374;2022-10-31T11:09:50;30.73;;;18.55;;
12437;SDS011;6283;51.330;12.374;2022-10-31T11:12:30;33.15;;;17.73;;
12437;SDS011;6283;51.330;12.374;2022-10-31T11:14:58;38.22;;;20.23;;
12437;SDS011;6283;51.330;12.374;2022-10-31T11:17:33;31.42;;;18.55;;
12437;SDS011;6283;51.330;12.374;2022-10-31T11:20:02;37.20;;;19.85;;
12437;SDS011;6283;51.330;12.374;2022-10-31T11:22:28;30.70;;;17.10;;
12437;SDS011;6283;51.330;12.374;2022-10-31T11:24:55;31.13;;;17.60;;
12437;SDS011;6283;51.330;12.374;2022-10-31T11:27:21;30.65;;;17.02;;
12437;SDS011;6283;51.330;12.374;2022-10-31T11:29:48;31.95;;;18.90;;
12437;SDS011;6283;51.330;12.374;2022-10-31T11:32:16;29.50;;;18.75;;
12437;SDS011;6283;51.330;12.374;2022-10-31T11:34:56;30.13;;;17.88;;
12437;SDS011;6283;51.330;12.374;2022-10-31T11:37:26;30.95;;;18.60;;
12437;SDS011;6283;51.330;12.374;2022-10-31T11:39:55;31.13;;;17.70;;
12437;SDS011;6283;51.330;12.374;2022-10-31T11:42:44;29.58;;;17.88;;
12437;SDS011;6283;51.330;12.374;2022-10-31T11:45:16;27.38;;;16.80;;
12437;SDS011;6283;51.330;12.374;2022-10-31T11:47:49;28.95;;;17.88;;
12437;SDS011;6283;51.330;12.374;2022-10-31T11:52:56;27.83;;;17.40;;
12437;SDS011;6283;51.330;12.374;2022-10-31T11:55:35;27.60;;;16.98;;
12437;SDS011;6283;51.330;12.374;2022-10-31T11:58:02;26.85;;;16.80;;
12437;SDS011;6283;51.330;12.374;2022-10-31T12:00:33;27.67;;;17.10;;
12437;SDS011;6283;51.330;12.374;2022-10-31T12:06:02;29.58;;;16.67;;
12437;SDS011;6283;51.330;12.374;2022-10-31T12:08:37;24.77;;;15.68;;
12437;SDS011;6283;51.330;12.374;2022-10-31T12:11:27;26.20;;;16.92;;
12437;SDS011;6283;51.330;12.374;2022-10-31T12:16:41;30.77;;;17.17;;
12437;SDS011;6283;51.330;12.374;2022-10-31T12:24:31;25.70;;;16.30;;
12437;SDS011;6283;51.330;12.374;2022-10-31T12:38:24;25.48;;;16.15;;
12437;SDS011;6283;51.330;12.374;2022-10-31T12:41:03;29.13;;;15.48;;
12437;SDS011;6283;51.330;12.374;2022-10-31T12:59:50;30.88;;;16.73;;
12437;SDS011;6283;51.330;12.374;2022-10-31T13:07:52;26.15;;;17.63;;
12437;SDS011;6283;51.330;12.374;2022-10-31T13:12:58;31.83;;;16.83;;
12437;SDS011;6283;51.330;12.374;2022-10-31T13:15:32;25.48;;;15.80;;
12437;SDS011;6283;51.330;12.374;2022-10-31T13:18:04;25.52;;;15.80;;
12437;SDS011;6283;51.330;12.374;2022-10-31T13:20:40;29.73;;;15.35;;
12437;SDS011;6283;51.330;12.374;2022-10-31T13:25:53;35.75;;;19.05;;
12437;SDS011;6283;51.330;12.374;2022-10-31T13:30:53;26.17;;;16.15;;
12437;SDS011;6283;51.330;12.374;2022-10-31T13:46:37;27.63;;;15.60;;
12437;SDS011;6283;51.330;12.374;2022-10-31T13:49:18;26.70;;;15.27;;
12437;SDS011;6283;51.330;12.374;2022-10-31T13:51:47;29.58;;;16.15;;
12437;SDS011;6283;51.330;12.374;2022-10-31T13:54:20;27.42;;;15.20;;
12437;SDS011;6283;51.330;12.374;2022-10-31T13:57:00;20.50;;;12.75;;
12437;SDS011;6283;51.330;12.374;2022-10-31T13:59:26;21.42;;;14.23;;
12437;SDS011;6283;51.330;12.374;2022-10-31T14:02:00;19.77;;;13.15;;
12437;SDS011;6283;51.330;12.374;2022-10-31T14:04:38;24.52;;;14.30;;
12437;SDS011;6283;51.330;12.374;2022-10-31T14:07:12;23.88;;;13.32;;
12437;SDS011;6283;51.330;12.374;2022-10-31T14:12:45;22.17;;;12.15;;
12437;SDS011;6283;51.330;12.374;2022-10-31T14:20:34;27.48;;;14.00;;
12437;SDS011;6283;51.330;12.374;2022-10-31T14:26:34;19.40;;;12.40;;
12437;SDS011;6283;51.330;12.374;2022-10-31T14:28:55;21.38;;;12.82;;
12437;SDS011;6283;51.330;12.374;2022-10-31T14:31:51;27.75;;;14.15;;
12437;SDS011;6283;51.330;12.374;2022-10-31T14:45:08;25.23;;;14.40;;
12437;SDS011;6283;51.330;12.374;2022-10-31T14:53:05;25.65;;;16.50;;
12437;SDS011;6283;51.330;12.374;2022-10-31T14:55:35;24.17;;;15.65;;
12437;SDS011;6283;51.330;12.374;2022-10-31T14:58:08;25.38;;;15.18;;
12437;SDS011;6283;51.330;12.374;2022-10-31T15:00:34;30.75;;;17.00;;
12437;SDS011;6283;51.330;12.374;2022-10-31T15:03:04;32.28;;;16.80;;
12437;SDS011;6283;51.330;12.374;2022-10-31T15:05:41;32.78;;;16.77;;
12437;SDS011;6283;51.330;12.374;2022-10-31T15:08:14;32.05;;;18.33;;
12437;SDS011;6283;51.330;12.374;2022-10-31T15:10:56;28.85;;;17.85;;
12437;SDS011;6283;51.330;12.374;2022-10-31T15:13:22;38.22;;;18.15;;
12437;SDS011;6283;51.330;12.374;2022-10-31T15:15:48;30.20;;;17.77;;
12437;SDS011;6283;51.330;12.374;2022-10-31T15:18:18;33.53;;;18.33;;
12437;SDS011;6283;51.330;12.374;2022-10-31T15:20:46;29.30;;;17.08;;
12437;SDS011;6283;51.330;12.374;2022-10-31T15:23:16;33.17;;;18.50;;
12437;SDS011;6283;51.330;12.374;2022-10-31T15:25:47;32.17;;;18.67;;
12437;SDS011;6283;51.330;12.374;2022-10-31T15:28:19;30.38;;;18.23;;
12437;SDS011;6283;51.330;12.374;2022-10-31T15:30:49;36.92;;;19.10;;
12437;SDS011;6283;51.330;12.374;2022-10-31T15:33:20;37.83;;;20.17;;
12437;SDS011;6283;51.330;12.374;2022-10-31T15:35:59;31.27;;;18.38;;
12437;SDS011;6283;51.330;12.374;2022-10-31T15:38:26;34.75;;;19.88;;
12437;SDS011;6283;51.330;12.374;2022-10-31T15:40:57;37.38;;;20.13;;
12437;SDS011;6283;51.330;12.374;2022-10-31T15:43:30;33.15;;;20.17;;
12437;SDS011;6283;51.330;12.374;2022-10-31T15:46:01;32.50;;;19.55;;
12437;SDS011;6283;51.330;12.374;2022-10-31T15:48:29;35.95;;;20.10;;
12437;SDS011;6283;51.330;12.374;2022-10-31T15:50:57;37.28;;;19.88;;
12437;SDS011;6283;51.330;12.374;2022-10-31T15:55:53;39.45;;;21.17;;
12437;SDS011;6283;51.330;12.374;2022-10-31T15:58:24;39.45;;;21.80;;
12437;SDS011;6283;51.330;12.374;2022-10-31T16:01:04;36.83;;;20.30;;
12437;SDS011;6283;51.330;12.374;2022-10-31T16:03:31;35.17;;;20.33;;
12437;SDS011;6283;51.330;12.374;2022-10-31T16:05:59;38.90;;;20.95;;
12437;SDS011;6283;51.330;12.374;2022-10-31T16:10:57;33.55;;;20.65;;
12437;SDS011;6283;51.330;12.374;2022-10-31T16:13:29;39.25;;;22.58;;
12437;SDS011;6283;51.330;12.374;2022-10-31T16:15:57;38.50;;;22.85;;
12437;SDS011;6283;51.330;12.374;2022-10-31T16:18:25;37.33;;;21.75;;
12437;SDS011;6283;51.330;12.374;2022-10-31T16:20:53;40.42;;;23.17;;
12437;SDS011;6283;51.330;12.374;2022-10-31T16:23:21;35.47;;;21.70;;
12437;SDS011;6283;51.330;12.374;2022-10-31T16:25:49;37.88;;;21.40;;
12437;SDS011;6283;51.330;12.374;2022-10-31T16:28:20;39.53;;;24.00;;
12437;SDS011;6283;51.330;12.374;2022-10-31T16:30:49;39.85;;;23.60;;
12437;SDS011;6283;51.330;12.374;2022-10-31T16:33:24;42.88;;;23.88;;
12437;SDS011;6283;51.330;12.374;2022-10-31T16:35:50;41.42;;;23.90;;
12437;SDS011;6283;51.330;12.374;2022-10-31T16:38:16;43.25;;;24.50;;
12437;SDS011;6283;51.330;12.374;2022-10-31T16:40:41;39.10;;;24.67;;
12437;SDS011;6283;51.330;12.374;2022-10-31T16:43:09;42.80;;;24.15;;
12437;SDS011;6283;51.330;12.374;2022-10-31T16:45:41;42.60;;;23.42;;
12437;SDS011;6283;51.330;12.374;2022-10-31T16:48:18;37.13;;;22.75;;
12437;SDS011;6283;51.330;12.374;2022-10-31T16:50:45;48.42;;;27.38;;
12437;SDS011;6283;51.330;12.374;2022-10-31T16:53:12;45.35;;;25.70;;
12437;SDS011;6283;51.330;12.374;2022-10-31T16:55:50;38.17;;;23.25;;
12437;SDS011;6283;51.330;12.374;2022-10-31T16:58:23;38.78;;;22.85;;
12437;SDS011;6283;51.330;12.374;2022-10-31T17:00:50;43.70;;;22.48;;
12437;SDS011;6283;51.330;12.374;2022-10-31T17:03:17;37.47;;;21.85;;
12437;SDS011;6283;51.330;12.374;2022-10-31T17:05:43;38.20;;;24.40;;
12437;SDS011;6283;51.330;12.374;2022-10-31T17:08:09;45.30;;;26.75;;
12437;SDS011;6283;51.330;12.374;2022-10-31T17:10:35;43.03;;;24.90;;
12437;SDS011;6283;51.330;12.374;2022-10-31T17:13:02;47.20;;;26.30;;
12437;SDS011;6283;51.330;12.374;2022-10-31T17:15:33;46.92;;;26.13;;
12437;SDS011;6283;51.330;12.374;2022-10-31T19:54:34;34.60;;;20.35;;
12437;SDS011;6283;51.330;12.374;2022-10-31T19:57:00;33.30;;;21.35;;
12437;SDS011;6283;51.330;12.374;2022-10-31T19:59:26;31.63;;;21.02;;
12437;SDS011;6283;51.330;12.374;2022-10-31T20:01:51;30.35;;;20.50;;
12437;SDS011;6283;51.330;12.374;2022-10-31T20:04:17;34.33;;;21.33;;
12437;SDS011;6283;51.330;12.374;2022-10-31T20:06:42;30.63;;;19.95;;
12437;SDS011;6283;51.330;12.374;2022-10-31T20:09:09;33.83;;;20.65;;
12437;SDS011;6283;51.330;12.374;2022-10-31T20:11:39;35.33;;;19.90;;
12437;SDS011;6283;51.330;12.374;2022-10-31T20:14:06;30.00;;;20.75;;
12437;SDS011;6283;51.330;12.374;2022-10-31T20:16:34;30.67;;;19.92;;